Time;durP1;ratioP1;P1;durP2;ratioP2;P2;SDS_P1;SDS_P2;PMS_P1;PMS_P2;Temp;Humidity;BMP_temperature;BMP_pressure;BME280_temperature;BME280_humidity;BME280_pressure;Samples;Min_cycle;Max_cycle;Signal;HPM_P1;HPM_P2
2021/04/25 00:07:12;;;;;;;1999.90;999.90;;;;;;;7.91;50.35;101860.16;15435091;28;20058;-58
2021/04/25 00:14:44;;;;;;;1999.90;999.90;;;;;;;7.70;51.15;101851.94;15374119;28;20034;-59
2021/04/25 00:22:16;;;;;;;1999.90;999.90;;;;;;;7.54;52.11;101844.81;15423043;28;20121;-55
2021/04/25 00:29:47;;;;;;;1999.90;999.90;;;;;;;7.31;52.40;101837.97;15410488;28;20051;-56
2021/04/25 00:37:20;;;;;;;1999.90;999.90;;;;;;;7.27;53.42;101838.81;15395044;28;20074;-58
2021/04/25 00:44:52;;;;;;;1999.90;999.90;;;;;;;7.36;54.87;101843.50;15396598;28;20066;-57
2021/04/25 00:52:25;;;;;;;1999.90;999.90;;;;;;;7.50;53.96;101840.94;15414523;28;20047;-59
2021/04/25 00:59:57;;;;;;;1999.90;999.90;;;;;;;7.60;54.43;101829.78;15349636;28;20039;-59
2021/04/25 01:07:30;;;;;;;1999.90;999.90;;;;;;;7.65;54.76;101835.31;15391103;28;20389;-58
2021/04/25 01:15:03;;;;;;;1999.90;999.90;;;;;;;7.70;54.86;101828.88;15399592;28;20087;-58
2021/04/25 01:22:36;;;;;;;1999.90;999.90;;;;;;;7.77;55.49;101832.19;15414167;28;20049;-60
2021/04/25 01:30:10;;;;;;;1999.90;999.90;;;;;;;7.80;53.94;101824.09;15394029;28;20043;-58
2021/04/25 01:37:43;;;;;;;1999.90;999.90;;;;;;;7.89;54.59;101826.28;15438365;28;20090;-57
2021/04/25 01:45:16;;;;;;;1999.90;999.90;;;;;;;7.83;55.68;101825.50;15396143;28;20047;-55
2021/04/25 01:52:49;;;;;;;1999.90;999.90;;;;;;;7.72;55.76;101821.13;15391038;28;20504;-58
2021/04/25 02:00:29;;;;;;;1999.90;999.90;;;;;;;7.73;56.05;101822.78;15400112;28;20167;-57
2021/04/25 02:08:02;;;;;;;1999.90;999.90;;;;;;;7.69;56.64;101822.50;15400138;28;20418;-57
2021/04/25 02:15:34;;;;;;;1999.90;999.90;;;;;;;7.55;57.94;101821.47;15418959;28;20044;-59
2021/04/25 02:23:06;;;;;;;1999.90;999.90;;;;;;;7.82;56.30;101810.78;15390494;28;20058;-58
2021/04/25 02:30:38;;;;;;;1999.90;999.90;;;;;;;7.61;56.18;101811.16;15399912;28;20039;-58
2021/04/25 02:38:11;;;;;;;1999.90;999.90;;;;;;;7.31;57.50;101810.22;15364385;28;20089;-60
2021/04/25 02:45:42;;;;;;;1999.90;999.90;;;;;;;7.32;57.41;101802.72;15393291;28;20050;-59
2021/04/25 02:53:15;;;;;;;1999.90;999.90;;;;;;;7.27;59.26;101797.19;15393778;28;20039;-57
2021/04/25 03:00:46;;;;;;;1999.90;999.90;;;;;;;7.35;58.42;101800.19;15344607;28;20051;-55
2021/04/25 03:08:19;;;;;;;1999.90;999.90;;;;;;;7.34;58.99;101795.75;15394304;28;20110;-55
2021/04/25 03:15:51;;;;;;;1999.90;999.90;;;;;;;7.25;58.45;101800.25;15386390;28;20051;-58
2021/04/25 03:23:23;;;;;;;1999.90;999.90;;;;;;;7.20;57.25;101789.16;15364126;28;20137;-58
2021/04/25 03:30:55;;;;;;;1999.90;999.90;;;;;;;7.15;57.96;101791.97;15395519;28;20122;-58
2021/04/25 03:38:27;;;;;;;1999.90;999.90;;;;;;;7.18;57.63;101777.50;15415830;28;20504;-58
2021/04/25 03:45:59;;;;;;;1999.90;999.90;;;;;;;7.19;56.68;101780.00;15403304;28;20042;-60
2021/04/25 03:53:31;;;;;;;1999.90;999.90;;;;;;;7.12;56.38;101779.47;15336992;28;20412;-60
2021/04/25 04:01:03;;;;;;;1999.90;999.90;;;;;;;7.22;55.38;101786.94;15401329;28;20047;-57
2021/04/25 04:08:35;;;;;;;1999.90;999.90;;;;;;;7.33;55.06;101785.78;15407268;28;20074;-57
2021/04/25 04:16:07;;;;;;;1999.90;999.90;;;;;;;7.31;54.92;101796.34;15429880;28;20046;-57
2021/04/25 04:23:39;;;;;;;1999.90;999.90;;;;;;;7.40;55.31;101796.53;15416109;28;20046;-58
2021/04/25 04:31:11;;;;;;;1999.90;999.90;;;;;;;7.64;55.22;101803.09;15410356;28;20570;-57
2021/04/25 04:38:44;;;;;;;1999.90;999.90;;;;;;;7.76;56.21;101803.56;15415931;28;20515;-58
2021/04/25 04:46:16;;;;;;;1999.90;999.90;;;;;;;7.22;57.84;101817.47;15385193;28;20138;-58
2021/04/25 04:53:48;;;;;;;1999.90;999.90;;;;;;;7.62;56.68;101798.94;15406549;28;20463;-56
2021/04/25 05:01:20;;;;;;;1999.90;999.90;;;;;;;7.79;55.84;101814.09;15411547;28;20393;-58
2021/04/25 05:08:52;;;;;;;1999.90;999.90;;;;;;;8.17;55.54;101816.34;15407627;28;20094;-58
2021/04/25 05:16:24;;;;;;;1999.90;999.90;;;;;;;8.45;54.84;101810.03;15364635;28;20035;-58
2021/04/25 05:23:56;;;;;;;1999.90;999.90;;;;;;;8.47;55.56;101813.34;15396441;28;20097;-57
2021/04/25 05:31:27;;;;;;;1999.90;999.90;;;;;;;8.92;53.95;101816.78;15387669;28;20408;-57
2021/04/25 05:39:00;;;;;;;1999.90;999.90;;;;;;;8.94;54.18;101828.44;15419284;28;20069;-57
2021/04/25 05:46:33;;;;;;;1999.90;999.90;;;;;;;9.36;53.10;101827.66;15400357;28;20134;-57
2021/04/25 05:54:06;;;;;;;1999.90;999.90;;;;;;;9.59;51.89;101839.06;15372757;28;20586;-58
2021/04/25 06:01:37;;;;;;;1999.90;999.90;;;;;;;9.35;52.54;101830.75;15361845;28;20042;-59
2021/04/25 06:09:10;;;;;;;1999.90;999.90;;;;;;;9.66;50.65;101851.50;15413268;28;20050;-56
2021/04/25 06:16:41;;;;;;;1999.90;999.90;;;;;;;9.70;51.33;101854.53;15395601;28;20051;-58
2021/04/25 06:24:13;;;;;;;1999.90;999.90;;;;;;;9.46;51.35;101851.78;15405834;28;20485;-57
2021/04/25 06:31:45;;;;;;;1999.90;999.90;;;;;;;9.88;50.21;101859.28;15399951;28;20315;-59
2021/04/25 06:39:17;;;;;;;1999.90;999.90;;;;;;;10.44;48.21;101858.47;15362022;28;20455;-54
2021/04/25 06:46:49;;;;;;;1999.90;999.90;;;;;;;11.67;45.92;101860.56;15349203;28;20069;-62
2021/04/25 06:54:21;;;;;;;1999.90;999.90;;;;;;;12.16;45.63;101864.50;15402598;28;20043;-59
2021/04/25 07:01:53;;;;;;;1999.90;999.90;;;;;;;11.52;45.35;101858.91;15365258;28;20070;-60
2021/04/25 07:09:25;;;;;;;1999.90;999.90;;;;;;;11.20;45.63;101862.66;15436129;28;20108;-62
2021/04/25 07:16:57;;;;;;;1999.90;999.90;;;;;;;11.64;43.39;101863.97;15405377;28;20481;-62
2021/04/25 07:24:29;;;;;;;1999.90;999.90;;;;;;;13.60;42.77;101868.00;15363805;29;20043;-61
2021/04/25 07:32:01;;;;;;;1999.90;999.90;;;;;;;13.92;40.28;101870.38;15374635;29;20043;-60
2021/04/25 07:39:34;;;;;;;1999.90;999.90;;;;;;;13.84;39.37;101863.59;15375664;28;20412;-61
2021/04/25 07:47:05;;;;;;;1999.90;999.90;;;;;;;13.84;38.82;101868.38;15343005;29;20048;-62
2021/04/25 07:54:38;;;;;;;1999.90;999.90;;;;;;;13.51;40.52;101879.19;15434565;28;20489;-61
2021/04/25 08:02:09;;;;;;;1999.90;999.90;;;;;;;14.62;37.00;101880.50;15427842;28;20043;-60
2021/04/25 08:09:42;;;;;;;1999.90;999.90;;;;;;;15.83;36.94;101876.41;15428241;28;20500;-63
2021/04/25 08:17:13;;;;;;;1999.90;999.90;;;;;;;16.87;34.12;101886.84;15413184;28;20467;-60
2021/04/25 08:24:46;;;;;;;1999.90;999.90;;;;;;;17.09;33.40;101889.28;15444936;28;20094;-61
2021/04/25 08:32:17;;;;;;;1999.90;999.90;;;;;;;15.93;32.38;101886.47;15427150;28;20522;-60
2021/04/25 08:39:50;;;;;;;1999.90;999.90;;;;;;;14.71;33.78;101883.31;15427184;28;20097;-61
2021/04/25 08:47:23;;;;;;;1999.90;999.90;;;;;;;15.00;34.03;101885.38;15426748;28;20050;-61
2021/04/25 08:54:56;;;;;;;;;;;;;;;16.81;34.10;101883.44;15439466;23;20492;-60
2021/04/25 09:02:28;;;;;;;1999.90;999.90;;;;;;;16.46;33.06;101885.72;15431453;28;19976;-60
2021/04/25 09:10:05;;;;;;;1999.90;999.90;;;;;;;14.13;35.72;101895.84;15388214;28;20059;-55
2021/04/25 09:17:51;;;;;;;1999.90;999.90;;;;;;;14.98;34.50;101894.13;15417583;28;20126;-59
2021/04/25 09:25:23;;;;;;;1999.90;999.90;;;;;;;13.72;37.50;101902.69;15405370;28;20043;-60
2021/04/25 09:33:00;;;;;;;1999.90;999.90;;;;;;;13.00;38.68;101903.81;15415246;28;20035;-59
2021/04/25 09:40:39;;;;;;;1999.90;999.90;;;;;;;12.81;40.20;101910.78;15425839;28;20527;-58
2021/04/25 09:48:25;;;;;;;1999.90;999.90;;;;;;;14.03;37.38;101916.63;15434451;28;20507;-57
2021/04/25 09:55:58;;;;;;;1999.90;999.90;;;;;;;14.49;38.47;101917.22;15432190;28;20523;-54
2021/04/25 10:03:35;;;;;;;1999.90;999.90;;;;;;;14.98;37.84;101907.38;15414465;28;20392;-59
2021/04/25 10:11:08;;;;;;;1999.90;999.90;;;;;;;15.83;39.49;101913.84;15431309;28;20130;-57
2021/04/25 10:18:40;;;;;;;;;;;;;;;13.85;40.65;101918.56;15414433;28;20066;-53
2021/04/25 10:26:14;;;;;;;1999.90;999.90;;;;;;;12.91;43.21;101918.94;15429950;28;19921;-57
2021/04/25 10:33:54;;;;;;;1999.90;999.90;;;;;;;12.53;42.90;101926.91;15431891;28;20498;-54
2021/04/25 10:41:27;;;;;;;1999.90;999.90;;;;;;;12.12;37.30;101927.84;15429899;28;20055;-54
2021/04/25 10:49:30;;;;;;;1999.90;999.90;;;;;;;12.55;35.46;101928.25;15429307;28;20051;-53
2021/04/25 10:57:07;;;;;;;1999.90;999.90;;;;;;;13.50;33.47;101928.03;15430142;28;20050;-56
2021/04/25 11:05:04;;;;;;;1999.90;999.90;;;;;;;13.85;33.04;101924.16;15429480;28;20046;-54
2021/04/25 11:12:41;;;;;;;1999.90;999.90;;;;;;;13.35;34.46;101925.66;15429868;28;20051;-56
2021/04/25 11:20:29;;;;;;;1999.90;999.90;;;;;;;13.87;34.53;101923.88;15411746;28;20082;-60
2021/04/25 11:28:01;;;;;;;1999.90;999.90;;;;;;;15.65;32.05;101914.28;15426724;28;20039;-56
2021/04/25 11:35:33;;;;;;;1999.90;999.90;;;;;;;18.76;32.11;101919.28;15411917;28;20047;-53
2021/04/25 11:43:05;;;;;;;1999.90;999.90;;;;;;;17.82;29.44;101906.31;15410738;28;20050;-56
2021/04/25 11:50:38;;;;;;;1999.90;999.90;;;;;;;20.22;29.12;101900.41;15394485;28;20063;-57
2021/04/25 11:58:11;;;;;;;1999.90;999.90;;;;;;;19.72;26.98;101907.72;15409970;28;20134;-56
2021/04/25 12:05:42;;;;;;;1999.90;999.90;;;;;;;21.00;24.60;101885.03;15409823;28;20101;-54
2021/04/25 12:13:17;;;;;;;1999.90;999.90;;;;;;;22.43;23.09;101891.06;15394114;28;20050;-55
2021/04/25 12:20:50;;;;;;;1999.90;999.90;;;;;;;22.09;25.02;101895.03;15409310;28;20540;-59
2021/04/25 12:28:35;;;;;;;;;;;;;;;17.62;27.77;101900.75;15409421;28;20039;-53
2021/04/25 12:36:09;;;;;;;1999.90;999.90;;;;;;;14.48;31.83;101907.91;15411071;28;20018;-60
2021/04/25 12:43:54;;;;;;;1999.90;999.90;;;;;;;13.11;31.11;101897.94;15421478;28;20047;-56
2021/04/25 12:51:27;;;;;;;1999.90;999.90;;;;;;;13.16;30.46;101901.47;15405831;28;20077;-60
2021/04/25 12:59:05;;;;;;;1999.90;999.90;;;;;;;15.68;27.53;101888.28;15420224;28;20130;-56
2021/04/25 13:06:37;;;;;;;1999.90;999.90;;;;;;;25.58;18.43;101884.25;15435180;28;20058;-57
2021/04/25 13:14:11;;;;;;;1999.90;999.90;;;;;;;16.48;25.84;101891.03;15401344;28;20043;-56
2021/04/25 13:21:44;;;;;;;1999.90;999.90;;;;;;;16.11;27.34;101880.38;15400782;28;20137;-52
2021/04/25 13:29:20;;;;;;;1999.90;999.90;;;;;;;15.45;27.74;101877.28;15433771;28;20046;-56
2021/04/25 13:36:51;;;;;;;1999.90;999.90;;;;;;;15.52;28.09;101876.72;15415705;28;20061;-57
2021/04/25 13:44:24;;;;;;;1999.90;999.90;;;;;;;17.00;27.66;101875.28;15415449;28;20047;-52
2021/04/25 13:51:56;;;;;;;1999.90;999.90;;;;;;;15.33;27.93;101856.66;15431427;28;20452;-53
2021/04/25 13:59:28;;;;;;;1999.90;999.90;;;;;;;14.44;26.35;101876.03;15432172;28;20047;-55
2021/04/25 14:07:00;;;;;;;1999.90;999.90;;;;;;;15.15;26.50;101851.09;15397870;28;20051;-53
2021/04/25 14:14:33;;;;;;;1999.90;999.90;;;;;;;15.52;28.01;101857.88;15430263;28;20062;-57
2021/04/25 14:22:05;;;;;;;1999.90;999.90;;;;;;;14.90;26.16;101838.81;15413224;28;20056;-55
2021/04/25 14:29:37;;;;;;;1999.90;999.90;;;;;;;14.94;27.82;101845.38;15431221;28;20077;-59
2021/04/25 14:37:08;;;;;;;1999.90;999.90;;;;;;;14.24;28.12;101848.63;15432074;28;20050;-55
2021/04/25 14:44:41;;;;;;;1999.90;999.90;;;;;;;14.53;27.77;101848.78;15429071;28;20169;-55
2021/04/25 14:52:13;;;;;;;1999.90;999.90;;;;;;;14.41;26.79;101845.81;15360145;28;20127;-60
2021/04/25 14:59:45;;;;;;;1999.90;999.90;;;;;;;14.27;27.90;101843.16;15421752;28;20130;-61
2021/04/25 15:07:16;;;;;;;1999.90;999.90;;;;;;;13.80;27.79;101840.16;15365996;28;20058;-61
2021/04/25 15:14:49;;;;;;;1999.90;999.90;;;;;;;13.16;29.53;101836.16;15381763;28;20528;-60
2021/04/25 15:22:21;;;;;;;1999.90;999.90;;;;;;;12.69;29.41;101847.78;15387224;28;20054;-60
2021/04/25 15:29:53;;;;;;;1999.90;999.90;;;;;;;12.80;29.92;101851.13;15393143;28;20050;-58
2021/04/25 15:37:27;;;;;;;1999.90;999.90;;;;;;;13.00;29.33;101850.59;15387171;28;20045;-61
2021/04/25 15:44:59;;;;;;;1999.90;999.90;;;;;;;13.39;30.08;101846.16;15374310;28;20035;-61
2021/04/25 15:52:31;;;;;;;1999.90;999.90;;;;;;;13.37;29.73;101853.25;15392848;28;20353;-60
2021/04/25 16:00:05;;;;;;;1999.90;999.90;;;;;;;13.26;28.88;101847.13;15390979;28;20180;-61
2021/04/25 16:07:36;;;;;;;1999.90;999.90;;;;;;;12.70;30.01;101848.59;15390368;28;20480;-61
2021/04/25 16:15:11;;;;;;;1999.90;999.90;;;;;;;12.95;32.26;101849.91;15363812;28;20172;-62
2021/04/25 16:22:43;;;;;;;1999.90;999.90;;;;;;;12.33;31.11;101858.25;15374328;28;20113;-61
2021/04/25 16:30:17;;;;;;;1999.90;999.90;;;;;;;12.78;31.10;101855.41;15410306;28;20043;-61
2021/04/25 16:37:48;;;;;;;;;;;;;;;13.10;30.08;101860.69;15437611;28;20053;-61
2021/04/25 16:45:21;;;;;;;1999.90;999.90;;;;;;;12.96;28.91;101863.59;15418462;28;19922;-61
2021/04/25 16:52:53;;;;;;;1999.90;999.90;;;;;;;12.57;30.41;101853.13;15435461;28;20039;-61
2021/04/25 17:00:26;;;;;;;1999.90;999.90;;;;;;;12.74;29.09;101860.00;15387367;28;20043;-60
2021/04/25 17:07:58;;;;;;;1999.90;999.90;;;;;;;12.43;30.21;101872.81;15385173;28;20126;-61
2021/04/25 17:15:30;;;;;;;1999.90;999.90;;;;;;;12.46;30.21;101868.53;15399182;28;20044;-61
2021/04/25 17:23:03;;;;;;;1999.90;999.90;;;;;;;12.31;30.29;101864.16;15406035;28;20043;-60
2021/04/25 17:30:36;;;;;;;1999.90;999.90;;;;;;;12.41;31.13;101863.09;15393928;28;20054;-60
2021/04/25 17:38:08;;;;;;;1999.90;999.90;;;;;;;11.74;30.28;101860.13;15398999;28;20130;-61
2021/04/25 17:45:41;;;;;;;1999.90;999.90;;;;;;;11.60;30.46;101885.31;15357862;28;20066;-62
2021/04/25 17:53:13;;;;;;;1999.90;999.90;;;;;;;11.94;30.89;101892.44;15356996;28;20503;-60
2021/04/25 18:00:45;;;;;;;1999.90;999.90;;;;;;;11.15;31.42;101882.31;15399676;28;20085;-60
2021/04/25 18:08:17;;;;;;;1999.90;999.90;;;;;;;11.14;31.91;101888.19;15370513;28;20083;-62
2021/04/25 18:15:50;;;;;;;1999.90;999.90;;;;;;;10.55;31.97;101898.19;15367946;28;20049;-61
2021/04/25 18:23:22;;;;;;;1999.90;999.90;;;;;;;10.49;33.06;101908.59;15413383;28;20316;-60
2021/04/25 18:30:55;;;;;;;1999.90;999.90;;;;;;;10.26;33.28;101909.53;15403214;28;20047;-62
2021/04/25 18:38:27;;;;;;;1999.90;999.90;;;;;;;10.19;34.85;101918.22;15385933;28;20047;-58
2021/04/25 18:45:59;;;;;;;1999.90;999.90;;;;;;;10.06;34.33;101930.97;15390836;28;20090;-61
2021/04/25 18:53:31;;;;;;;1999.90;999.90;;;;;;;10.09;35.23;101935.94;15403500;28;20090;-62
2021/04/25 19:01:05;;;;;;;1999.90;999.90;;;;;;;9.86;35.50;101934.03;15355449;28;20054;-61
2021/04/25 19:08:38;;;;;;;1999.90;999.90;;;;;;;9.50;36.16;101942.84;15385158;28;20114;-62
2021/04/25 19:16:13;;;;;;;1999.90;999.90;;;;;;;9.40;36.42;101942.97;15368554;29;20039;-62
2021/04/25 19:23:44;;;;;;;1999.90;999.90;;;;;;;9.35;36.07;101947.75;15383085;28;20050;-62
2021/04/25 19:31:19;;;;;;;1999.90;999.90;;;;;;;9.16;36.57;101948.47;15371412;28;20117;-61
2021/04/25 19:38:51;;;;;;;1999.90;999.90;;;;;;;8.94;36.37;101956.50;15370008;28;20492;-58
2021/04/25 19:46:26;;;;;;;1999.90;999.90;;;;;;;9.26;36.63;101956.75;15443040;28;20073;-64
2021/04/25 19:53:58;;;;;;;1999.90;999.90;;;;;;;8.80;36.83;101958.28;15418507;28;20101;-62
2021/04/25 20:01:32;;;;;;;1999.90;999.90;;;;;;;8.91;37.96;101957.91;15425933;28;20478;-60
2021/04/25 20:09:07;;;;;;;1999.90;999.90;;;;;;;8.49;37.92;101964.09;15411275;28;20436;-63
2021/04/25 20:16:46;;;;;;;1999.90;999.90;;;;;;;8.68;37.70;101961.47;15430031;28;20066;-62
2021/04/25 20:24:18;;;;;;;1999.90;999.90;;;;;;;8.15;39.51;101961.22;15428886;28;20083;-64
2021/04/25 20:31:52;;;;;;;1999.90;999.90;;;;;;;7.99;39.63;101967.97;15416669;28;20077;-61
2021/04/25 20:39:24;;;;;;;1999.90;999.90;;;;;;;8.15;38.23;101954.84;15388812;28;20053;-63
2021/04/25 20:47:06;;;;;;;1999.90;999.90;;;;;;;8.00;38.58;101958.50;15411399;28;20074;-62
2021/04/25 20:54:46;;;;;;;1999.90;999.90;;;;;;;7.81;39.57;101944.41;15307869;23;20115;-60
2021/04/25 21:02:19;;;;;;;1999.90;999.90;;;;;;;7.84;38.77;101952.22;15263299;29;20358;-60
2021/04/25 21:09:53;;;;;;;1999.90;999.90;;;;;;;7.61;40.60;101944.50;15263837;29;20466;-59
2021/04/25 21:17:27;;;;;;;1999.90;999.90;;;;;;;7.42;40.88;101941.53;15244407;29;20048;-59
2021/04/25 21:25:00;;;;;;;1999.90;999.90;;;;;;;7.20;41.25;101942.69;15263402;29;20063;-58
2021/04/25 21:32:35;;;;;;;1999.90;999.90;;;;;;;7.13;42.16;101938.53;15261757;29;20134;-59
2021/04/25 21:40:11;;;;;;;1999.90;999.90;;;;;;;6.96;42.46;101938.81;15261237;29;20063;-60
2021/04/25 21:47:44;;;;;;;1999.90;999.90;;;;;;;6.78;42.60;101943.03;15261287;29;20131;-58
2021/04/25 21:55:17;;;;;;;1999.90;999.90;;;;;;;6.67;42.76;101938.59;15260219;29;20414;-56
2021/04/25 22:02:55;;;;;;;1999.90;999.90;;;;;;;6.56;43.11;101936.88;15260054;29;20585;-60
2021/04/25 22:10:29;;;;;;;1999.90;999.90;;;;;;;6.39;42.38;101933.56;15259177;29;20044;-58
2021/04/25 22:18:09;;;;;;;1999.90;999.90;;;;;;;6.22;42.65;101937.41;15266327;29;20048;-58
2021/04/25 22:25:52;;;;;;;1999.90;999.90;;;;;;;6.05;43.44;101937.66;15260562;29;20466;-60
2021/04/25 22:33:33;;;;;;;1999.90;999.90;;;;;;;5.98;43.23;101937.09;15258238;29;20052;-58
2021/04/25 22:41:09;;;;;;;1999.90;999.90;;;;;;;5.79;44.91;101931.16;15257811;29;20127;-57
2021/04/25 22:48:42;;;;;;;1999.90;999.90;;;;;;;5.68;43.78;101926.69;15257643;29;20051;-58
2021/04/25 22:56:17;;;;;;;1999.90;999.90;;;;;;;5.55;43.73;101926.38;15257680;29;20432;-56
2021/04/25 23:03:50;;;;;;;1999.90;999.90;;;;;;;5.39;44.19;101911.59;15258096;29;20051;-59
2021/04/25 23:11:25;;;;;;;1999.90;999.90;;;;;;;5.16;45.44;101910.09;15256655;29;20080;-59
2021/04/25 23:18:58;;;;;;;1999.90;999.90;;;;;;;5.06;46.50;101912.81;15254945;29;20044;-61
2021/04/25 23:26:30;;;;;;;1999.90;999.90;;;;;;;4.87;47.30;101902.16;15254294;29;20048;-60
2021/04/25 23:34:03;;;;;;;1999.90;999.90;;;;;;;4.69;47.81;101894.31;15256928;29;20155;-59
2021/04/25 23:41:36;;;;;;;1999.90;999.90;;;;;;;4.49;48.61;101894.97;15254949;29;20123;-59
2021/04/25 23:49:11;;;;;;;1999.90;999.90;;;;;;;4.34;48.94;101881.00;15256045;29;20084;-58
2021/04/25 23:56:44;;;;;;;;;;;;;;;4.34;50.05;101887.38;15239919;29;20048;-59
